sensor_id;sensor_type;location;lat;lon;timestamp;pressure;altitude;pressure_sealevel;temperature
60615;BMP280;46444;45.590;5.284;2023-05-07T00:00:08;98629.53;;;19.76
60615;BMP280;46444;45.590;5.284;2023-05-07T00:02:34;98631.31;;;19.67
60615;BMP280;46444;45.590;5.284;2023-05-07T00:05:00;98619.97;;;19.79
60615;BMP280;46444;45.590;5.284;2023-05-07T00:07:27;98624.50;;;19.83
60615;BMP280;46444;45.590;5.284;2023-05-07T00:09:52;98615.28;;;19.84
60615;BMP280;46444;45.590;5.284;2023-05-07T00:12:17;98623.50;;;19.79
60615;BMP280;46444;45.590;5.284;2023-05-07T00:14:43;98616.47;;;19.78
60615;BMP280;46444;45.590;5.284;2023-05-07T00:17:08;98639.25;;;19.77
60615;BMP280;46444;45.590;5.284;2023-05-07T00:19:33;98639.47;;;19.81
60615;BMP280;46444;45.590;5.284;2023-05-07T00:21:59;98633.75;;;19.82
60615;BMP280;46444;45.590;5.284;2023-05-07T00:24:24;98639.78;;;19.79
60615;BMP280;46444;45.590;5.284;2023-05-07T00:26:50;98633.75;;;19.82
60615;BMP280;46444;45.590;5.284;2023-05-07T00:29:15;98645.41;;;19.83
60615;BMP280;46444;45.590;5.284;2023-05-07T00:31:41;98646.91;;;19.89
60615;BMP280;46444;45.590;5.284;2023-05-07T00:34:06;98649.22;;;19.82
60615;BMP280;46444;45.590;5.284;2023-05-07T00:36:31;98663.56;;;19.82
60615;BMP280;46444;45.590;5.284;2023-05-07T00:38:59;98670.09;;;19.81
60615;BMP280;46444;45.590;5.284;2023-05-07T00:41:25;98669.28;;;19.81
60615;BMP280;46444;45.590;5.284;2023-05-07T00:43:50;98672.94;;;19.90
60615;BMP280;46444;45.590;5.284;2023-05-07T00:46:17;98667.13;;;19.96
60615;BMP280;46444;45.590;5.284;2023-05-07T00:48:43;98659.09;;;19.91
60615;BMP280;46444;45.590;5.284;2023-05-07T00:51:09;98661.69;;;19.83
60615;BMP280;46444;45.590;5.284;2023-05-07T00:53:36;98644.78;;;19.86
60615;BMP280;46444;45.590;5.284;2023-05-07T00:56:01;98651.59;;;19.56
60615;BMP280;46444;45.590;5.284;2023-05-07T00:58:27;98655.13;;;19.70
60615;BMP280;46444;45.590;5.284;2023-05-07T01:00:52;98651.75;;;19.46
60615;BMP280;46444;45.590;5.284;2023-05-07T01:03:18;98656.91;;;19.61
60615;BMP280;46444;45.590;5.284;2023-05-07T01:05:45;98660.13;;;19.63
60615;BMP280;46444;45.590;5.284;2023-05-07T01:08:11;98673.75;;;19.58
60615;BMP280;46444;45.590;5.284;2023-05-07T01:10:37;98676.88;;;19.52
60615;BMP280;46444;45.590;5.284;2023-05-07T01:13:02;98669.88;;;19.64
60615;BMP280;46444;45.590;5.284;2023-05-07T01:15:28;98674.66;;;19.54
60615;BMP280;46444;45.590;5.284;2023-05-07T01:17:56;98677.50;;;19.62
60615;BMP280;46444;45.590;5.284;2023-05-07T01:20:22;98680.91;;;19.68
60615;BMP280;46444;45.590;5.284;2023-05-07T01:22:49;98680.72;;;19.64
60615;BMP280;46444;45.590;5.284;2023-05-07T01:25:14;98675.19;;;19.69
60615;BMP280;46444;45.590;5.284;2023-05-07T01:27:41;98669.50;;;19.71
60615;BMP280;46444;45.590;5.284;2023-05-07T01:30:07;98675.84;;;19.48
60615;BMP280;46444;45.590;5.284;2023-05-07T01:32:40;98685.09;;;19.60
60615;BMP280;46444;45.590;5.284;2023-05-07T01:35:10;98677.81;;;19.42
60615;BMP280;46444;45.590;5.284;2023-05-07T01:37:37;98685.09;;;19.60
60615;BMP280;46444;45.590;5.284;2023-05-07T01:40:03;98672.88;;;19.63
60615;BMP280;46444;45.590;5.284;2023-05-07T01:42:29;98672.75;;;19.54
60615;BMP280;46444;45.590;5.284;2023-05-07T01:44:54;98676.13;;;19.46
60615;BMP280;46444;45.590;5.284;2023-05-07T01:47:20;98675.69;;;19.58
60615;BMP280;46444;45.590;5.284;2023-05-07T01:49:46;98676.38;;;19.63
60615;BMP280;46444;45.590;5.284;2023-05-07T01:52:12;98681.81;;;19.63
60615;BMP280;46444;45.590;5.284;2023-05-07T01:54:38;98684.44;;;19.68
60615;BMP280;46444;45.590;5.284;2023-05-07T01:57:03;98671.66;;;19.55
60615;BMP280;46444;45.590;5.284;2023-05-07T01:59:29;98676.69;;;19.62
60615;BMP280;46444;45.590;5.284;2023-05-07T02:01:54;98680.00;;;19.72
60615;BMP280;46444;45.590;5.284;2023-05-07T02:04:19;98680.00;;;19.72
60615;BMP280;46444;45.590;5.284;2023-05-07T02:06:45;98685.97;;;19.74
60615;BMP280;46444;45.590;5.284;2023-05-07T02:09:10;98677.84;;;19.74
60615;BMP280;46444;45.590;5.284;2023-05-07T02:11:36;98688.38;;;19.76
60615;BMP280;46444;45.590;5.284;2023-05-07T02:14:01;98680.53;;;19.74
60615;BMP280;46444;45.590;5.284;2023-05-07T02:16:26;98683.03;;;19.71
60615;BMP280;46444;45.590;5.284;2023-05-07T02:18:52;98681.66;;;19.73
60615;BMP280;46444;45.590;5.284;2023-05-07T02:21:17;98685.84;;;19.66
60615;BMP280;46444;45.590;5.284;2023-05-07T02:23:43;98684.91;;;19.57
60615;BMP280;46444;45.590;5.284;2023-05-07T02:26:08;98678.69;;;19.56
60615;BMP280;46444;45.590;5.284;2023-05-07T02:28:33;98684.41;;;19.55
60615;BMP280;46444;45.590;5.284;2023-05-07T02:31:02;98688.00;;;19.50
60615;BMP280;46444;45.590;5.284;2023-05-07T02:33:28;98682.25;;;19.38
60615;BMP280;46444;45.590;5.284;2023-05-07T02:35:53;98682.06;;;19.48
60615;BMP280;46444;45.590;5.284;2023-05-07T02:38:18;98683.09;;;19.52
60615;BMP280;46444;45.590;5.284;2023-05-07T02:40:44;98674.75;;;19.30
60615;BMP280;46444;45.590;5.284;2023-05-07T02:43:09;98677.59;;;19.26
60615;BMP280;46444;45.590;5.284;2023-05-07T02:45:34;98669.13;;;19.27
60615;BMP280;46444;45.590;5.284;2023-05-07T02:48:01;98663.16;;;19.30
60615;BMP280;46444;45.590;5.284;2023-05-07T02:50:26;98662.13;;;19.26
60615;BMP280;46444;45.590;5.284;2023-05-07T02:52:52;98658.81;;;19.10
60615;BMP280;46444;45.590;5.284;2023-05-07T02:55:17;98656.72;;;19.08
60615;BMP280;46444;45.590;5.284;2023-05-07T02:57:44;98660.16;;;18.76
60615;BMP280;46444;45.590;5.284;2023-05-07T03:00:11;98659.06;;;18.96
60615;BMP280;46444;45.590;5.284;2023-05-07T03:02:36;98654.94;;;18.98
60615;BMP280;46444;45.590;5.284;2023-05-07T03:05:02;98664.09;;;18.84
60615;BMP280;46444;45.590;5.284;2023-05-07T03:07:28;98664.97;;;18.79
60615;BMP280;46444;45.590;5.284;2023-05-07T03:09:53;98659.50;;;18.66
60615;BMP280;46444;45.590;5.284;2023-05-07T03:12:19;98665.25;;;18.59
60615;BMP280;46444;45.590;5.284;2023-05-07T03:14:45;98663.50;;;18.50
60615;BMP280;46444;45.590;5.284;2023-05-07T03:17:10;98661.56;;;18.50
60615;BMP280;46444;45.590;5.284;2023-05-07T03:19:36;98669.69;;;18.50
60615;BMP280;46444;45.590;5.284;2023-05-07T03:22:01;98663.03;;;18.61
60615;BMP280;46444;45.590;5.284;2023-05-07T03:24:26;98663.38;;;18.60
60615;BMP280;46444;45.590;5.284;2023-05-07T03:26:52;98660.44;;;18.33
60615;BMP280;46444;45.590;5.284;2023-05-07T03:29:17;98657.59;;;18.19
60615;BMP280;46444;45.590;5.284;2023-05-07T03:31:42;98663.72;;;18.06
60615;BMP280;46444;45.590;5.284;2023-05-07T03:34:08;98659.44;;;18.24
60615;BMP280;46444;45.590;5.284;2023-05-07T03:36:33;98655.50;;;18.16
60615;BMP280;46444;45.590;5.284;2023-05-07T03:38:58;98667.84;;;18.22
60615;BMP280;46444;45.590;5.284;2023-05-07T03:41:24;98674.28;;;18.03
60615;BMP280;46444;45.590;5.284;2023-05-07T03:43:50;98683.09;;;18.13
60615;BMP280;46444;45.590;5.284;2023-05-07T03:46:16;98681.22;;;18.14
60615;BMP280;46444;45.590;5.284;2023-05-07T03:48:41;98677.91;;;18.17
60615;BMP280;46444;45.590;5.284;2023-05-07T03:51:06;98672.81;;;18.39
60615;BMP280;46444;45.590;5.284;2023-05-07T03:53:32;98669.69;;;18.27
60615;BMP280;46444;45.590;5.284;2023-05-07T03:55:57;98663.97;;;18.33
60615;BMP280;46444;45.590;5.284;2023-05-07T03:58:22;98657.53;;;18.24
60615;BMP280;46444;45.590;5.284;2023-05-07T04:00:48;98656.66;;;18.29
60615;BMP280;46444;45.590;5.284;2023-05-07T04:03:13;98657.88;;;18.18
60615;BMP280;46444;45.590;5.284;2023-05-07T04:05:39;98663.81;;;18.20
60615;BMP280;46444;45.590;5.284;2023-05-07T04:08:04;98672.56;;;18.12
60615;BMP280;46444;45.590;5.284;2023-05-07T04:10:30;98672.56;;;18.12
60615;BMP280;46444;45.590;5.284;2023-05-07T04:12:56;98689.28;;;18.19
60615;BMP280;46444;45.590;5.284;2023-05-07T04:15:22;98685.81;;;18.13
60615;BMP280;46444;45.590;5.284;2023-05-07T04:17:48;98698.81;;;18.11
60615;BMP280;46444;45.590;5.284;2023-05-07T04:20:16;98703.75;;;18.04
60615;BMP280;46444;45.590;5.284;2023-05-07T04:22:43;98720.72;;;18.10
60615;BMP280;46444;45.590;5.284;2023-05-07T04:25:08;98720.25;;;18.03
60615;BMP280;46444;45.590;5.284;2023-05-07T04:27:35;98721.59;;;18.05
60615;BMP280;46444;45.590;5.284;2023-05-07T04:30:01;98735.84;;;18.11
60615;BMP280;46444;45.590;5.284;2023-05-07T04:32:28;98731.72;;;18.18
60615;BMP280;46444;45.590;5.284;2023-05-07T04:34:54;98729.88;;;18.14
60615;BMP280;46444;45.590;5.284;2023-05-07T04:37:20;98723.91;;;18.17
60615;BMP280;46444;45.590;5.284;2023-05-07T04:39:45;98725.22;;;18.19
60615;BMP280;46444;45.590;5.284;2023-05-07T04:42:15;98726.31;;;18.18
60615;BMP280;46444;45.590;5.284;2023-05-07T04:44:40;98731.31;;;18.06
60615;BMP280;46444;45.590;5.284;2023-05-07T04:47:05;98734.59;;;18.03
60615;BMP280;46444;45.590;5.284;2023-05-07T04:49:31;98729.94;;;18.09
60615;BMP280;46444;45.590;5.284;2023-05-07T04:51:56;98722.34;;;18.11
60615;BMP280;46444;45.590;5.284;2023-05-07T04:54:22;98735.38;;;18.04
60615;BMP280;46444;45.590;5.284;2023-05-07T04:56:47;98737.47;;;18.12
60615;BMP280;46444;45.590;5.284;2023-05-07T04:59:12;98736.44;;;18.08
60615;BMP280;46444;45.590;5.284;2023-05-07T05:01:38;98739.88;;;18.13
60615;BMP280;46444;45.590;5.284;2023-05-07T05:04:03;98741.66;;;17.99
60615;BMP280;46444;45.590;5.284;2023-05-07T05:06:29;98743.47;;;18.09
60615;BMP280;46444;45.590;5.284;2023-05-07T05:08:54;98750.75;;;18.08
60615;BMP280;46444;45.590;5.284;2023-05-07T05:11:19;98751.63;;;18.04
60615;BMP280;46444;45.590;5.284;2023-05-07T05:13:45;98755.31;;;18.13
60615;BMP280;46444;45.590;5.284;2023-05-07T05:16:13;98754.81;;;18.06
60615;BMP280;46444;45.590;5.284;2023-05-07T05:18:38;98759.06;;;18.17
60615;BMP280;46444;45.590;5.284;2023-05-07T05:21:03;98764.28;;;18.08
60615;BMP280;46444;45.590;5.284;2023-05-07T05:23:29;98759.91;;;18.12
60615;BMP280;46444;45.590;5.284;2023-05-07T05:25:56;98770.38;;;17.90
60615;BMP280;46444;45.590;5.284;2023-05-07T05:28:22;98771.06;;;18.06
60615;BMP280;46444;45.590;5.284;2023-05-07T05:30:48;98768.72;;;18.23
60615;BMP280;46444;45.590;5.284;2023-05-07T05:33:14;98766.03;;;18.23
60615;BMP280;46444;45.590;5.284;2023-05-07T05:35:39;98766.59;;;18.20
60615;BMP280;46444;45.590;5.284;2023-05-07T05:38:04;98770.88;;;18.26
60615;BMP280;46444;45.590;5.284;2023-05-07T05:40:30;98781.75;;;18.21
60615;BMP280;46444;45.590;5.284;2023-05-07T05:42:55;98775.41;;;18.35
60615;BMP280;46444;45.590;5.284;2023-05-07T05:45:21;98777.72;;;18.18
60615;BMP280;46444;45.590;5.284;2023-05-07T05:47:46;98775.16;;;18.32
60615;BMP280;46444;45.590;5.284;2023-05-07T05:50:11;98783.78;;;18.34
60615;BMP280;46444;45.590;5.284;2023-05-07T05:52:37;98775.69;;;18.29
60615;BMP280;46444;45.590;5.284;2023-05-07T05:55:03;98779.38;;;18.43
60615;BMP280;46444;45.590;5.284;2023-05-07T05:57:28;98769.53;;;18.52
60615;BMP280;46444;45.590;5.284;2023-05-07T05:59:53;98777.59;;;18.57
60615;BMP280;46444;45.590;5.284;2023-05-07T06:02:20;98770.63;;;18.51
60615;BMP280;46444;45.590;5.284;2023-05-07T06:04:45;98764.16;;;18.47
60615;BMP280;46444;45.590;5.284;2023-05-07T06:07:10;98769.53;;;18.52
60615;BMP280;46444;45.590;5.284;2023-05-07T06:09:36;98773.50;;;18.59
60615;BMP280;46444;45.590;5.284;2023-05-07T06:12:02;98763.19;;;18.61
60615;BMP280;46444;45.590;5.284;2023-05-07T06:14:27;98758.00;;;18.65
60615;BMP280;46444;45.590;5.284;2023-05-07T06:16:52;98754.06;;;18.76
60615;BMP280;46444;45.590;5.284;2023-05-07T06:19:18;98751.97;;;18.73
60615;BMP280;46444;45.590;5.284;2023-05-07T06:21:48;98760.16;;;18.86
60615;BMP280;46444;45.590;5.284;2023-05-07T06:24:13;98763.50;;;19.02
60615;BMP280;46444;45.590;5.284;2023-05-07T06:26:38;98762.91;;;19.04
60615;BMP280;46444;45.590;5.284;2023-05-07T06:29:05;98769.88;;;19.10
60615;BMP280;46444;45.590;5.284;2023-05-07T06:31:31;98769.19;;;19.18
60615;BMP280;46444;45.590;5.284;2023-05-07T06:33:57;98769.78;;;19.15
60615;BMP280;46444;45.590;5.284;2023-05-07T06:36:23;98760.75;;;19.25
60615;BMP280;46444;45.590;5.284;2023-05-07T06:38:48;98762.72;;;19.38
60615;BMP280;46444;45.590;5.284;2023-05-07T06:41:13;98763.69;;;19.47
60615;BMP280;46444;45.590;5.284;2023-05-07T06:43:38;98752.97;;;19.55
60615;BMP280;46444;45.590;5.284;2023-05-07T06:46:04;98754.72;;;19.65
60615;BMP280;46444;45.590;5.284;2023-05-07T06:48:30;98755.44;;;19.70
60615;BMP280;46444;45.590;5.284;2023-05-07T06:50:55;98755.94;;;19.72
60615;BMP280;46444;45.590;5.284;2023-05-07T06:53:23;98751.81;;;19.75
60615;BMP280;46444;45.590;5.284;2023-05-07T06:55:48;98750.00;;;19.70
60615;BMP280;46444;45.590;5.284;2023-05-07T06:58:13;98748.66;;;19.86
60615;BMP280;46444;45.590;5.284;2023-05-07T07:00:39;98747.97;;;19.94
60615;BMP280;46444;45.590;5.284;2023-05-07T07:03:06;98752.72;;;20.02
60615;BMP280;46444;45.590;5.284;2023-05-07T07:05:31;98752.13;;;20.05
60615;BMP280;46444;45.590;5.284;2023-05-07T07:07:56;98753.16;;;20.09
60615;BMP280;46444;45.590;5.284;2023-05-07T07:10:22;98753.16;;;20.09
60615;BMP280;46444;45.590;5.284;2023-05-07T07:12:48;98753.38;;;20.13
60615;BMP280;46444;45.590;5.284;2023-05-07T07:15:14;98762.22;;;20.18
60615;BMP280;46444;45.590;5.284;2023-05-07T07:17:40;98752.69;;;20.21
60615;BMP280;46444;45.590;5.284;2023-05-07T07:20:06;98755.59;;;20.24
60615;BMP280;46444;45.590;5.284;2023-05-07T07:22:31;98753.50;;;20.21
60615;BMP280;46444;45.590;5.284;2023-05-07T07:24:56;98759.81;;;20.30
60615;BMP280;46444;45.590;5.284;2023-05-07T07:27:22;98753.41;;;20.26
60615;BMP280;46444;45.590;5.284;2023-05-07T07:29:47;98756.81;;;20.32
60615;BMP280;46444;45.590;5.284;2023-05-07T07:32:12;98761.72;;;20.43
60615;BMP280;46444;45.590;5.284;2023-05-07T07:34:38;98755.31;;;20.39
60615;BMP280;46444;45.590;5.284;2023-05-07T07:37:03;98768.19;;;20.47
60615;BMP280;46444;45.590;5.284;2023-05-07T07:39:31;98764.25;;;20.53
60615;BMP280;46444;45.590;5.284;2023-05-07T07:41:57;98772.91;;;20.55
60615;BMP280;46444;45.590;5.284;2023-05-07T07:44:22;98776.25;;;20.66
60615;BMP280;46444;45.590;5.284;2023-05-07T07:46:47;98783.38;;;20.62
60615;BMP280;46444;45.590;5.284;2023-05-07T07:49:13;98781.69;;;20.66
60615;BMP280;46444;45.590;5.284;2023-05-07T07:51:39;98795.25;;;20.52
60615;BMP280;46444;45.590;5.284;2023-05-07T07:54:04;98792.53;;;20.52
60615;BMP280;46444;45.590;5.284;2023-05-07T07:56:29;98802.47;;;20.57
60615;BMP280;46444;45.590;5.284;2023-05-07T07:58:55;98801.78;;;20.51
60615;BMP280;46444;45.590;5.284;2023-05-07T08:01:20;98811.03;;;20.50
60615;BMP280;46444;45.590;5.284;2023-05-07T08:03:45;98809.91;;;20.51
60615;BMP280;46444;45.590;5.284;2023-05-07T08:06:11;98817.34;;;20.46
60615;BMP280;46444;45.590;5.284;2023-05-07T08:08:36;98821.78;;;20.42
60615;BMP280;46444;45.590;5.284;2023-05-07T08:11:01;98820.75;;;20.38
60615;BMP280;46444;45.590;5.284;2023-05-07T08:13:27;98817.63;;;20.31
60615;BMP280;46444;45.590;5.284;2023-05-07T08:15:52;98822.75;;;20.32
60615;BMP280;46444;45.590;5.284;2023-05-07T08:18:17;98818.84;;;20.38
60615;BMP280;46444;45.590;5.284;2023-05-07T08:20:43;98823.75;;;20.36
60615;BMP280;46444;45.590;5.284;2023-05-07T08:23:08;98832.44;;;20.38
60615;BMP280;46444;45.590;5.284;2023-05-07T08:25:34;98837.63;;;20.35
60615;BMP280;46444;45.590;5.284;2023-05-07T08:28:00;98833.50;;;20.37
60615;BMP280;46444;45.590;5.284;2023-05-07T08:30:25;98840.34;;;20.35
60615;BMP280;46444;45.590;5.284;2023-05-07T08:32:51;98843.06;;;20.35
60615;BMP280;46444;45.590;5.284;2023-05-07T08:35:16;98842.75;;;20.36
60615;BMP280;46444;45.590;5.284;2023-05-07T08:37:41;98844.69;;;20.36
60615;BMP280;46444;45.590;5.284;2023-05-07T08:40:07;98842.97;;;20.40
60615;BMP280;46444;45.590;5.284;2023-05-07T08:42:35;98850.41;;;20.34
60615;BMP280;46444;45.590;5.284;2023-05-07T08:45:02;98853.31;;;20.38
60615;BMP280;46444;45.590;5.284;2023-05-07T08:47:34;98856.34;;;20.36
60615;BMP280;46444;45.590;5.284;2023-05-07T08:50:04;98859.66;;;20.33
60615;BMP280;46444;45.590;5.284;2023-05-07T08:52:30;98865.22;;;20.42
60615;BMP280;46444;45.590;5.284;2023-05-07T08:54:56;98861.94;;;20.26
60615;BMP280;46444;45.590;5.284;2023-05-07T08:57:21;98862.75;;;20.27
60615;BMP280;46444;45.590;5.284;2023-05-07T08:59:48;98879.50;;;20.15
60615;BMP280;46444;45.590;5.284;2023-05-07T09:02:13;98866.16;;;20.19
60615;BMP280;46444;45.590;5.284;2023-05-07T09:04:39;98876.91;;;20.05
60615;BMP280;46444;45.590;5.284;2023-05-07T09:07:05;98882.34;;;20.05
60615;BMP280;46444;45.590;5.284;2023-05-07T09:09:32;98881.63;;;20.00
60615;BMP280;46444;45.590;5.284;2023-05-07T09:11:58;98891.44;;;19.77
60615;BMP280;46444;45.590;5.284;2023-05-07T09:14:27;98889.28;;;19.93
60615;BMP280;46444;45.590;5.284;2023-05-07T09:16:53;98894.50;;;19.89
60615;BMP280;46444;45.590;5.284;2023-05-07T09:19:23;98887.41;;;19.75
60615;BMP280;46444;45.590;5.284;2023-05-07T09:21:49;98901.25;;;19.55
60615;BMP280;46444;45.590;5.284;2023-05-07T09:24:15;98904.34;;;19.67
60615;BMP280;46444;45.590;5.284;2023-05-07T09:26:41;98911.22;;;19.59
60615;BMP280;46444;45.590;5.284;2023-05-07T09:29:07;98923.81;;;19.50
60615;BMP280;46444;45.590;5.284;2023-05-07T09:31:37;98918.63;;;19.30
60615;BMP280;46444;45.590;5.284;2023-05-07T09:34:04;98923.38;;;19.15
60615;BMP280;46444;45.590;5.284;2023-05-07T09:36:31;98916.88;;;18.92
60615;BMP280;46444;45.590;5.284;2023-05-07T09:38:59;98918.34;;;19.08
60615;BMP280;46444;45.590;5.284;2023-05-07T09:41:24;98924.50;;;19.14
60615;BMP280;46444;45.590;5.284;2023-05-07T09:43:54;98921.28;;;19.12
60615;BMP280;46444;45.590;5.284;2023-05-07T09:46:25;98932.09;;;19.12
60615;BMP280;46444;45.590;5.284;2023-05-07T09:48:52;98934.06;;;19.06
60615;BMP280;46444;45.590;5.284;2023-05-07T09:51:24;98934.94;;;18.74
60615;BMP280;46444;45.590;5.284;2023-05-07T09:53:52;98931.00;;;18.61
60615;BMP280;46444;45.590;5.284;2023-05-07T09:56:19;98934.03;;;18.83
60615;BMP280;46444;45.590;5.284;2023-05-07T09:58:45;98931.16;;;18.75
60615;BMP280;46444;45.590;5.284;2023-05-07T10:01:11;98929.53;;;18.74
60615;BMP280;46444;45.590;5.284;2023-05-07T10:03:40;98942.72;;;18.52
60615;BMP280;46444;45.590;5.284;2023-05-07T10:06:06;98947.72;;;18.35
60615;BMP280;46444;45.590;5.284;2023-05-07T10:08:32;98954.03;;;18.59
60615;BMP280;46444;45.590;5.284;2023-05-07T10:10:59;98953.50;;;18.57
60615;BMP280;46444;45.590;5.284;2023-05-07T10:13:24;98962.88;;;18.36
60615;BMP280;46444;45.590;5.284;2023-05-07T10:15:50;98962.84;;;18.41
60615;BMP280;46444;45.590;5.284;2023-05-07T10:18:16;98967.13;;;18.47
60615;BMP280;46444;45.590;5.284;2023-05-07T10:20:42;98960.81;;;18.56
60615;BMP280;46444;45.590;5.284;2023-05-07T10:23:12;98971.97;;;18.50
60615;BMP280;46444;45.590;5.284;2023-05-07T10:25:38;98965.97;;;18.53
60615;BMP280;46444;45.590;5.284;2023-05-07T10:28:06;98966.50;;;18.60
60615;BMP280;46444;45.590;5.284;2023-05-07T10:30:58;98978.50;;;18.49
60615;BMP280;46444;45.590;5.284;2023-05-07T10:33:29;98981.28;;;18.34
60615;BMP280;46444;45.590;5.284;2023-05-07T10:35:59;98979.38;;;18.39
60615;BMP280;46444;45.590;5.284;2023-05-07T10:38:27;98975.00;;;18.43
60615;BMP280;46444;45.590;5.284;2023-05-07T10:40:52;98978.72;;;18.14
60615;BMP280;46444;45.590;5.284;2023-05-07T10:43:18;98973.78;;;18.21
60615;BMP280;46444;45.590;5.284;2023-05-07T10:45:44;98982.38;;;18.33
60615;BMP280;46444;45.590;5.284;2023-05-07T10:48:29;98978.59;;;18.34
60615;BMP280;46444;45.590;5.284;2023-05-07T10:51:19;98981.28;;;18.29
60615;BMP280;46444;45.590;5.284;2023-05-07T10:53:45;98977.59;;;18.20
60615;BMP280;46444;45.590;5.284;2023-05-07T10:58:42;98981.03;;;17.82
60615;BMP280;46444;45.590;5.284;2023-05-07T11:01:07;98983.75;;;17.82
60615;BMP280;46444;45.590;5.284;2023-05-07T11:03:32;98984.50;;;17.97
60615;BMP280;46444;45.590;5.284;2023-05-07T11:06:15;98985.00;;;18.04
60615;BMP280;46444;45.590;5.284;2023-05-07T11:11:18;98986.09;;;18.03
60615;BMP280;46444;45.590;5.284;2023-05-07T11:13:46;98993.41;;;17.98
60615;BMP280;46444;45.590;5.284;2023-05-07T11:16:22;98990.72;;;17.93
60615;BMP280;46444;45.590;5.284;2023-05-07T11:18:53;98997.22;;;17.92
60615;BMP280;46444;45.590;5.284;2023-05-07T11:21:41;99001.03;;;17.86
60615;BMP280;46444;45.590;5.284;2023-05-07T11:24:10;99000.41;;;17.99
60615;BMP280;46444;45.590;5.284;2023-05-07T11:29:19;98987.97;;;18.03
60615;BMP280;46444;45.590;5.284;2023-05-07T11:31:52;98999.63;;;18.03
60615;BMP280;46444;45.590;5.284;2023-05-07T11:34:25;99000.44;;;17.94
60615;BMP280;46444;45.590;5.284;2023-05-07T11:36:51;98994.09;;;18.18
60615;BMP280;46444;45.590;5.284;2023-05-07T11:39:31;98997.81;;;18.32
60615;BMP280;46444;45.590;5.284;2023-05-07T11:41:58;98993.31;;;18.13
60615;BMP280;46444;45.590;5.284;2023-05-07T11:44:23;98990.84;;;18.21
60615;BMP280;46444;45.590;5.284;2023-05-07T11:46:49;98991.81;;;18.40
60615;BMP280;46444;45.590;5.284;2023-05-07T11:49:14;98996.34;;;18.50
60615;BMP280;46444;45.590;5.284;2023-05-07T11:51:41;98996.19;;;18.31
60615;BMP280;46444;45.590;5.284;2023-05-07T11:54:08;99006.78;;;18.23
60615;BMP280;46444;45.590;5.284;2023-05-07T11:56:34;99015.94;;;18.27
60615;BMP280;46444;45.590;5.284;2023-05-07T11:59:04;99002.22;;;18.13
60615;BMP280;46444;45.590;5.284;2023-05-07T12:01:29;99007.84;;;18.27
60615;BMP280;46444;45.590;5.284;2023-05-07T12:03:55;99001.34;;;18.23
60615;BMP280;46444;45.590;5.284;2023-05-07T12:06:20;98995.66;;;18.34
60615;BMP280;46444;45.590;5.284;2023-05-07T12:08:46;98997.78;;;18.37
60615;BMP280;46444;45.590;5.284;2023-05-07T12:11:18;98996.38;;;18.45
60615;BMP280;46444;45.590;5.284;2023-05-07T12:13:46;99002.41;;;18.27
60615;BMP280;46444;45.590;5.284;2023-05-07T12:16:12;99007.75;;;18.42
60615;BMP280;46444;45.590;5.284;2023-05-07T12:18:37;99011.00;;;18.44
60615;BMP280;46444;45.590;5.284;2023-05-07T12:21:04;99011.25;;;18.47
60615;BMP280;46444;45.590;5.284;2023-05-07T12:23:30;99017.41;;;18.53
60615;BMP280;46444;45.590;5.284;2023-05-07T12:25:55;99014.09;;;18.66
60615;BMP280;46444;45.590;5.284;2023-05-07T12:28:20;99020.00;;;18.68
60615;BMP280;46444;45.590;5.284;2023-05-07T12:30:49;99024.34;;;18.69
60615;BMP280;46444;45.590;5.284;2023-05-07T12:33:20;99023.88;;;18.57
60615;BMP280;46444;45.590;5.284;2023-05-07T12:35:48;99029.09;;;18.48
60615;BMP280;46444;45.590;5.284;2023-05-07T12:38:15;99021.19;;;18.57
60615;BMP280;46444;45.590;5.284;2023-05-07T12:40:44;99027.78;;;18.41
60615;BMP280;46444;45.590;5.284;2023-05-07T12:45:49;99022.81;;;18.53
60615;BMP280;46444;45.590;5.284;2023-05-07T12:48:15;99026.06;;;18.55
60615;BMP280;46444;45.590;5.284;2023-05-07T12:50:41;99028.03;;;18.44
60615;BMP280;46444;45.590;5.284;2023-05-07T12:53:07;99031.53;;;18.50
60615;BMP280;46444;45.590;5.284;2023-05-07T12:55:47;99027.28;;;18.29
60615;BMP280;46444;45.590;5.284;2023-05-07T12:58:16;99023.94;;;18.47
60615;BMP280;46444;45.590;5.284;2023-05-07T13:00:42;99026.59;;;18.57
60615;BMP280;46444;45.590;5.284;2023-05-07T13:03:08;99029.22;;;18.67
60615;BMP280;46444;45.590;5.284;2023-05-07T13:05:34;99037.59;;;18.70
60615;BMP280;46444;45.590;5.284;2023-05-07T13:08:00;99028.69;;;18.65
60615;BMP280;46444;45.590;5.284;2023-05-07T13:10:27;99035.66;;;18.71
60615;BMP280;46444;45.590;5.284;2023-05-07T13:12:53;99034.75;;;18.52
60615;BMP280;46444;45.590;5.284;2023-05-07T13:15:19;99025.06;;;18.41
60615;BMP280;46444;45.590;5.284;2023-05-07T13:17:44;99023.97;;;18.42
60615;BMP280;46444;45.590;5.284;2023-05-07T13:20:10;99031.59;;;18.40
60615;BMP280;46444;45.590;5.284;2023-05-07T13:22:36;99027.13;;;18.54
60615;BMP280;46444;45.590;5.284;2023-05-07T13:25:02;99038.78;;;18.54
60615;BMP280;46444;45.590;5.284;2023-05-07T13:27:27;99042.19;;;18.70
60615;BMP280;46444;45.590;5.284;2023-05-07T13:29:52;99041.63;;;18.73
60615;BMP280;46444;45.590;5.284;2023-05-07T13:32:18;99031.84;;;18.77
60615;BMP280;46444;45.590;5.284;2023-05-07T13:34:43;99038.91;;;18.78
60615;BMP280;46444;45.590;5.284;2023-05-07T13:37:09;99043.22;;;18.79
60615;BMP280;46444;45.590;5.284;2023-05-07T13:39:34;99041.69;;;18.63
60615;BMP280;46444;45.590;5.284;2023-05-07T13:42:00;99049.22;;;18.71
60615;BMP280;46444;45.590;5.284;2023-05-07T13:44:26;99045.13;;;18.73
60615;BMP280;46444;45.590;5.284;2023-05-07T13:46:51;99040.25;;;18.75
60615;BMP280;46444;45.590;5.284;2023-05-07T13:49:16;99040.28;;;18.37
60615;BMP280;46444;45.590;5.284;2023-05-07T13:51:42;99049.06;;;18.57
60615;BMP280;46444;45.590;5.284;2023-05-07T13:54:07;99045.63;;;18.42
60615;BMP280;46444;45.590;5.284;2023-05-07T13:56:33;99053.16;;;18.50
60615;BMP280;46444;45.590;5.284;2023-05-07T13:58:58;99042.31;;;18.55
60615;BMP280;46444;45.590;5.284;2023-05-07T14:01:24;99047.63;;;18.65
60615;BMP280;46444;45.590;5.284;2023-05-07T14:03:49;99048.16;;;18.72
60615;BMP280;46444;45.590;5.284;2023-05-07T14:06:15;99040.25;;;18.75
60615;BMP280;46444;45.590;5.284;2023-05-07T14:08:40;99048.03;;;18.82
60615;BMP280;46444;45.590;5.284;2023-05-07T14:11:05;99047.00;;;18.78
60615;BMP280;46444;45.590;5.284;2023-05-07T14:13:31;99048.09;;;18.77